Time;durP1;ratioP1;P1;durP2;ratioP2;P2;SDS_P1;SDS_P2;PMS_P1;PMS_P2;Temp;Humidity;BMP_temperature;BMP_pressure;BME280_temperature;BME280_humidity;BME280_pressure;Samples;Min_cycle;Max_cycle;Signal;HPM_P1;HPM_P2
2021/07/24 00:00:57;;;;;;;6.15;5.07;;;25.10;96.50;;;;;;4771968;30;20561;-90
2021/07/24 00:03:26;;;;;;;6.03;5.22;;;25.10;96.50;;;;;;4788569;30;20371;-90
2021/07/24 00:05:52;;;;;;;7.22;5.72;;;25.10;96.50;;;;;;4788101;30;20055;-90
2021/07/24 00:08:18;;;;;;;6.28;5.65;;;25.10;96.50;;;;;;4757262;30;20070;-89
2021/07/24 00:10:44;;;;;;;6.53;5.68;;;25.00;96.50;;;;;;4772235;30;20103;-90
2021/07/24 00:13:10;;;;;;;6.97;5.80;;;25.10;96.50;;;;;;4772204;30;20042;-89
2021/07/24 00:15:36;;;;;;;7.00;6.15;;;25.10;96.50;;;;;;4787521;30;20096;-88
2021/07/24 00:18:01;;;;;;;6.65;5.95;;;25.10;96.50;;;;;;4786453;30;20039;-89
2021/07/24 00:20:27;;;;;;;7.38;6.28;;;25.10;96.50;;;;;;4789304;30;20110;-88
2021/07/24 00:22:53;;;;;;;7.43;6.68;;;25.00;96.50;;;;;;4741654;30;20519;-89
2021/07/24 00:25:21;;;;;;;7.95;6.85;;;25.10;96.50;;;;;;4771540;30;20035;-89
2021/07/24 00:27:46;;;;;;;7.95;6.95;;;25.10;96.50;;;;;;4773290;29;20036;-88
2021/07/24 00:30:12;;;;;;;7.65;6.85;;;25.00;96.50;;;;;;4757273;30;20609;-89
2021/07/24 00:32:38;;;;;;;8.50;7.60;;;25.10;96.50;;;;;;4771171;30;20172;-89
2021/07/24 00:35:07;;;;;;;8.02;7.03;;;25.10;96.50;;;;;;4772463;30;20110;-88
2021/07/24 00:37:33;;;;;;;8.68;7.22;;;25.10;96.50;;;;;;4787437;30;20036;-88
2021/07/24 00:39:59;;;;;;;7.75;6.95;;;25.10;96.50;;;;;;4773491;30;20126;-88
2021/07/24 00:42:26;;;;;;;7.78;6.97;;;25.00;96.50;;;;;;4791159;30;20047;-88
2021/07/24 00:44:57;;;;;;;8.50;7.43;;;25.10;96.50;;;;;;4788603;29;20066;-88
2021/07/24 00:47:34;;;;;;;7.80;7.00;;;25.00;96.50;;;;;;4792355;30;20046;-88
2021/07/24 00:50:01;;;;;;;9.63;7.88;;;25.10;96.50;;;;;;4778120;30;20043;-89
2021/07/24 00:52:27;;;;;;;8.93;7.15;;;25.00;96.60;;;;;;4774931;30;20074;-88
2021/07/24 00:54:53;;;;;;;9.38;7.00;;;25.10;96.50;;;;;;4745622;30;20059;-89
2021/07/24 00:57:18;;;;;;;9.10;7.80;;;25.10;96.50;;;;;;4783739;30;20047;-88
2021/07/24 00:59:44;;;;;;;8.70;7.57;;;25.00;96.50;;;;;;4763387;30;20051;-89
2021/07/24 01:02:10;;;;;;;9.07;8.07;;;25.00;96.50;;;;;;4750196;30;20039;-89
2021/07/24 01:04:35;;;;;;;10.43;8.48;;;25.10;96.50;;;;;;4774783;30;20122;-89
2021/07/24 01:07:06;;;;;;;9.88;8.57;;;25.10;96.50;;;;;;4761560;30;20039;-94
2021/07/24 01:09:33;;;;;;;10.00;8.93;;;25.10;96.50;;;;;;4777765;30;20039;-90
2021/07/24 01:12:01;;;;;;;10.43;9.15;;;25.10;96.50;;;;;;4791499;30;20083;-88
2021/07/24 01:14:28;;;;;;;10.50;9.18;;;25.00;96.40;;;;;;4798364;30;20110;-90
2021/07/24 01:16:53;;;;;;;10.32;8.48;;;25.10;96.50;;;;;;4791813;30;20045;-89
2021/07/24 01:19:19;;;;;;;11.48;9.40;;;25.00;96.40;;;;;;4745071;30;20035;-89
2021/07/24 01:21:45;;;;;;;10.35;9.20;;;25.00;96.40;;;;;;4745094;30;20066;-89
2021/07/24 01:24:10;;;;;;;11.10;9.40;;;25.00;96.40;;;;;;4774082;30;20092;-89
2021/07/24 01:26:36;;;;;;;11.50;9.30;;;25.00;96.40;;;;;;4761639;30;20448;-90
2021/07/24 01:29:03;;;;;;;10.57;9.48;;;25.00;96.40;;;;;;4790054;30;20058;-90
2021/07/24 01:31:29;;;;;;;10.68;9.18;;;25.00;96.40;;;;;;4775622;30;20470;-88
2021/07/24 01:33:55;;;;;;;11.27;9.57;;;25.00;96.40;;;;;;4759449;30;20042;-89
2021/07/24 01:36:20;;;;;;;9.82;8.70;;;25.00;96.40;;;;;;4759193;30;20482;-88
2021/07/24 01:38:46;;;;;;;11.65;9.70;;;25.00;96.40;;;;;;4777547;29;20035;-89
2021/07/24 01:41:14;;;;;;;11.02;9.75;;;25.00;96.40;;;;;;4773626;30;20035;-90
2021/07/24 01:43:40;;;;;;;12.15;9.90;;;25.00;96.50;;;;;;4790166;29;20055;-90
2021/07/24 01:46:06;;;;;;;11.82;10.23;;;25.00;96.50;;;;;;4775364;30;20038;-90
2021/07/24 01:54:24;;;;;;;10.93;9.45;;;25.00;96.40;;;;;;4765312;30;20070;-91
2021/07/24 01:56:53;;;;;;;12.07;10.60;;;25.00;96.40;;;;;;4772809;30;20066;-89
2021/07/24 01:59:22;;;;;;;12.93;10.68;;;25.00;96.40;;;;;;4790859;30;20548;-90
2021/07/24 02:01:49;;;;;;;11.25;9.38;;;25.00;96.40;;;;;;4794120;30;20046;-91
2021/07/24 02:04:20;;;;;;;11.38;9.95;;;25.00;96.40;;;;;;4769356;30;20462;-89
2021/07/24 02:06:45;;;;;;;11.73;10.02;;;25.00;96.40;;;;;;4795254;30;20042;-90
2021/07/24 02:09:12;;;;;;;11.88;10.50;;;25.00;96.40;;;;;;4761486;30;20039;-89
2021/07/24 02:11:38;;;;;;;11.75;9.90;;;25.00;96.40;;;;;;4775049;30;20039;-88
2021/07/24 02:14:05;;;;;;;13.63;10.75;;;25.00;96.40;;;;;;4758767;30;20035;-89
2021/07/24 02:16:31;;;;;;;11.52;9.65;;;25.00;96.40;;;;;;4778861;30;20035;-88
2021/07/24 02:18:56;;;;;;;11.35;9.60;;;25.00;96.40;;;;;;4785682;30;20054;-88
2021/07/24 02:21:22;;;;;;;10.70;9.35;;;25.00;96.40;;;;;;4762677;30;20087;-90
2021/07/24 02:23:48;;;;;;;11.20;10.05;;;24.90;96.30;;;;;;4789413;30;20027;-90
2021/07/24 02:26:14;;;;;;;10.27;8.85;;;25.00;96.30;;;;;;4773151;30;20149;-89
2021/07/24 02:28:39;;;;;;;10.48;9.15;;;24.90;96.30;;;;;;4773432;30;20035;-88
2021/07/24 02:31:05;;;;;;;10.07;8.93;;;24.90;96.30;;;;;;4789441;30;20035;-88
2021/07/24 02:33:32;;;;;;;9.88;8.55;;;24.90;96.30;;;;;;4762611;29;20043;-88
2021/07/24 02:35:57;;;;;;;10.45;8.95;;;24.90;96.30;;;;;;4789275;30;20039;-90
2021/07/24 02:38:23;;;;;;;9.55;8.52;;;24.90;96.30;;;;;;4773310;30;20566;-89
2021/07/24 02:40:49;;;;;;;11.15;8.82;;;24.90;96.30;;;;;;4773200;30;20119;-89
2021/07/24 02:43:15;;;;;;;9.40;7.80;;;24.90;96.30;;;;;;4772872;29;20135;-91
2021/07/24 02:45:40;;;;;;;9.98;8.57;;;24.90;96.30;;;;;;4773170;30;20425;-91
2021/07/24 02:48:06;;;;;;;8.80;7.90;;;24.90;96.30;;;;;;4758255;30;20522;-90
2021/07/24 02:50:32;;;;;;;9.43;8.05;;;24.90;96.30;;;;;;4772690;30;20066;-90
2021/07/24 02:52:57;;;;;;;9.60;7.75;;;24.90;96.20;;;;;;4788729;30;20574;-91
2021/07/24 02:55:23;;;;;;;8.93;7.88;;;24.90;96.20;;;;;;4790803;29;20035;-90
2021/07/24 02:57:49;;;;;;;9.32;8.30;;;24.90;96.20;;;;;;4773377;30;20071;-90
2021/07/24 03:00:14;;;;;;;9.45;8.32;;;24.90;96.20;;;;;;4758355;30;20441;-90
2021/07/24 03:02:40;;;;;;;9.98;8.30;;;24.90;96.20;;;;;;4788665;30;20036;-90
2021/07/24 03:05:06;;;;;;;8.57;7.68;;;24.90;96.20;;;;;;4776585;30;20043;-91
2021/07/24 03:07:32;;;;;;;9.73;8.23;;;24.90;96.20;;;;;;4789301;30;20124;-91
2021/07/24 03:09:57;;;;;;;9.52;8.02;;;24.90;96.20;;;;;;4777113;30;20035;-91
2021/07/24 03:12:23;;;;;;;9.82;8.20;;;24.90;96.20;;;;;;4775711;29;20111;-89
2021/07/24 03:14:49;;;;;;;8.18;7.10;;;24.90;96.20;;;;;;4778944;30;20039;-89
2021/07/24 03:17:14;;;;;;;8.10;7.00;;;24.90;96.20;;;;;;4785452;30;20135;-89
2021/07/24 03:19:40;;;;;;;9.80;8.18;;;24.90;96.20;;;;;;4803882;30;20155;-91
2021/07/24 03:22:06;;;;;;;10.02;8.52;;;24.90;96.20;;;;;;4765604;30;20047;-90
2021/07/24 03:24:31;;;;;;;10.43;8.27;;;24.90;96.20;;;;;;4772764;30;20042;-90
2021/07/24 03:26:57;;;;;;;9.20;7.75;;;24.90;96.20;;;;;;4774094;30;20059;-89
2021/07/24 03:29:25;;;;;;;10.07;8.60;;;24.90;96.20;;;;;;4774267;30;20035;-90
2021/07/24 03:31:51;;;;;;;9.25;8.05;;;24.90;96.20;;;;;;4772511;30;20482;-91
2021/07/24 03:34:17;;;;;;;10.43;8.80;;;24.90;96.20;;;;;;4742380;30;20075;-90
2021/07/24 03:36:42;;;;;;;9.85;8.52;;;24.90;96.20;;;;;;4757150;30;20043;-90
2021/07/24 03:39:08;;;;;;;10.13;8.85;;;24.90;96.20;;;;;;4772240;30;20071;-89
2021/07/24 03:41:37;;;;;;;11.23;9.52;;;24.90;96.20;;;;;;4776014;30;20047;-90
2021/07/24 03:44:04;;;;;;;11.23;9.48;;;24.90;96.20;;;;;;4762728;30;20055;-89
2021/07/24 03:46:29;;;;;;;10.95;9.20;;;24.90;96.20;;;;;;4774071;30;20109;-90
2021/07/24 03:48:55;;;;;;;10.55;9.27;;;24.90;96.20;;;;;;4778138;30;20077;-90
2021/07/24 03:51:21;;;;;;;12.07;9.70;;;24.90;96.20;;;;;;4773775;30;20042;-90
2021/07/24 03:53:47;;;;;;;11.55;9.43;;;24.90;96.20;;;;;;4770178;30;20102;-90
2021/07/24 03:56:15;;;;;;;11.15;9.70;;;24.80;96.20;;;;;;4772631;30;20126;-89
2021/07/24 03:58:41;;;;;;;11.02;9.65;;;24.80;96.20;;;;;;4771445;30;20035;-90
2021/07/24 04:01:07;;;;;;;11.50;9.40;;;24.80;96.20;;;;;;4772156;30;20027;-90
2021/07/24 04:03:32;;;;;;;11.02;9.27;;;24.80;96.30;;;;;;4771933;30;20088;-88
2021/07/24 04:05:58;;;;;;;10.15;9.10;;;24.80;96.30;;;;;;4787569;30;20067;-89
2021/07/24 04:08:25;;;;;;;9.43;8.45;;;24.80;96.30;;;;;;4760480;30;20035;-89
2021/07/24 04:10:53;;;;;;;10.30;8.88;;;24.80;96.30;;;;;;4756963;30;20039;-89
2021/07/24 04:13:20;;;;;;;9.93;8.63;;;24.80;96.30;;;;;;4788561;30;20035;-88
2021/07/24 04:15:46;;;;;;;10.60;8.27;;;24.80;96.30;;;;;;4756967;30;20035;-89
2021/07/24 04:18:12;;;;;;;9.43;8.43;;;24.80;96.40;;;;;;4772177;30;20043;-89
2021/07/24 04:20:38;;;;;;;8.48;7.57;;;24.80;96.40;;;;;;4786833;30;20370;-88
2021/07/24 04:23:05;;;;;;;9.02;7.68;;;24.80;96.40;;;;;;4771458;30;20490;-89
2021/07/24 04:25:33;;;;;;;8.93;8.02;;;24.80;96.40;;;;;;4773258;30;20031;-89
2021/07/24 04:28:02;;;;;;;8.68;7.18;;;24.70;96.40;;;;;;4789061;29;20110;-89
2021/07/24 04:30:31;;;;;;;8.70;7.80;;;24.80;96.50;;;;;;4771180;30;20032;-88
2021/07/24 04:33:07;;;;;;;7.07;6.38;;;24.70;96.50;;;;;;4776995;30;20505;-88
2021/07/24 04:35:42;;;;;;;7.70;6.88;;;24.70;96.50;;;;;;4772303;30;20045;-89
2021/07/24 04:38:16;;;;;;;7.78;6.97;;;24.70;96.50;;;;;;4787339;30;20043;-88
2021/07/24 04:40:45;;;;;;;8.15;7.30;;;24.70;96.50;;;;;;4771680;30;20406;-88
2021/07/24 04:43:13;;;;;;;7.70;6.90;;;24.70;96.50;;;;;;4787387;30;20031;-89
2021/07/24 04:45:43;;;;;;;6.93;6.22;;;24.70;96.50;;;;;;4756405;30;20435;-88
2021/07/24 04:48:10;;;;;;;8.02;6.75;;;24.70;96.50;;;;;;4790616;30;20115;-89
2021/07/24 04:50:44;;;;;;;6.93;5.90;;;24.70;96.50;;;;;;4771109;30;20039;-89
2021/07/24 04:53:12;;;;;;;6.47;5.85;;;24.80;96.60;;;;;;4772707;30;20039;-88
2021/07/24 04:55:39;;;;;;;6.97;5.97;;;24.70;96.60;;;;;;4778824;30;20036;-88
2021/07/24 04:58:09;;;;;;;6.75;6.07;;;24.70;96.60;;;;;;4770886;30;20038;-89
2021/07/24 05:00:50;;;;;;;6.07;5.47;;;24.80;96.60;;;;;;4787240;30;20118;-88
2021/07/24 05:03:16;;;;;;;5.28;4.78;;;24.80;96.60;;;;;;4771311;30;20221;-89
2021/07/24 05:05:43;;;;;;;6.53;5.60;;;24.80;96.60;;;;;;4771614;30;20035;-87
2021/07/24 05:08:13;;;;;;;6.03;5.38;;;24.80;96.60;;;;;;4771243;30;20071;-88
2021/07/24 05:10:41;;;;;;;6.57;5.68;;;24.80;96.60;;;;;;4786965;30;20110;-89
2021/07/24 05:13:07;;;;;;;6.38;5.53;;;24.80;96.60;;;;;;4786778;29;20106;-89
2021/07/24 05:15:35;;;;;;;6.00;5.40;;;24.80;96.70;;;;;;4756963;30;20055;-89
2021/07/24 05:18:01;;;;;;;6.20;5.60;;;24.80;96.90;;;;;;4760291;30;20088;-89
2021/07/24 05:20:31;;;;;;;7.65;6.25;;;24.80;96.70;;;;;;4793953;30;20061;-89
2021/07/24 05:22:57;;;;;;;7.00;5.43;;;24.80;96.70;;;;;;4771306;30;20065;-88
2021/07/24 05:25:23;;;;;;;6.03;5.43;;;24.80;96.60;;;;;;4770967;30;20527;-89
2021/07/24 05:27:49;;;;;;;6.20;5.32;;;24.80;96.60;;;;;;4787872;29;20108;-88
2021/07/24 05:30:15;;;;;;;6.03;5.43;;;24.90;96.70;;;;;;4783829;29;20180;-88
2021/07/24 05:32:41;;;;;;;6.53;5.35;;;24.80;96.60;;;;;;4777788;30;20027;-93
2021/07/24 05:35:08;;;;;;;6.25;5.43;;;24.80;96.60;;;;;;4775936;30;20032;-94
2021/07/24 05:37:34;;;;;;;5.82;5.22;;;24.80;96.60;;;;;;4791912;30;20069;-92
2021/07/24 05:40:00;;;;;;;6.50;5.80;;;24.80;96.60;;;;;;4767957;30;20039;-93
2021/07/24 05:42:25;;;;;;;6.60;5.90;;;24.90;96.60;;;;;;4779369;30;20061;-94
2021/07/24 05:44:51;;;;;;;6.10;5.30;;;24.90;96.70;;;;;;4780888;29;20055;-92
2021/07/24 05:47:17;;;;;;;5.93;5.07;;;24.90;96.70;;;;;;4785361;30;20044;-93
2021/07/24 05:49:42;;;;;;;6.35;5.40;;;24.90;96.70;;;;;;4769245;30;20039;-93
2021/07/24 05:52:16;;;;;;;6.50;5.60;;;24.90;96.80;;;;;;4800387;29;20040;-93
2021/07/24 05:54:47;;;;;;;6.80;6.10;;;24.90;96.80;;;;;;4774963;30;20070;-94
2021/07/24 05:57:13;;;;;;;6.75;5.97;;;24.90;96.80;;;;;;4775681;30;20578;-93
2021/07/24 05:59:38;;;;;;;6.22;5.30;;;24.90;96.80;;;;;;4778023;30;20054;-93
2021/07/24 06:02:09;;;;;;;5.97;5.30;;;24.90;96.80;;;;;;4759845;30;20038;-94
2021/07/24 06:04:35;;;;;;;6.35;5.75;;;24.90;96.80;;;;;;4774708;30;20035;-92
2021/07/24 06:07:01;;;;;;;5.65;4.95;;;24.90;96.80;;;;;;4774936;30;20039;-93
2021/07/24 06:09:27;;;;;;;5.25;4.75;;;24.90;96.80;;;;;;4774729;30;20524;-92
2021/07/24 06:11:59;;;;;;;4.60;4.18;;;24.90;96.80;;;;;;4776393;30;20039;-92
2021/07/24 06:14:25;;;;;;;5.68;4.90;;;24.90;96.80;;;;;;4774632;30;20043;-91
2021/07/24 06:16:52;;;;;;;4.93;4.15;;;24.90;96.80;;;;;;4759832;30;20406;-92
2021/07/24 06:19:18;;;;;;;5.28;4.72;;;24.90;96.80;;;;;;4774657;30;20150;-93
2021/07/24 06:21:46;;;;;;;5.00;4.43;;;24.90;96.80;;;;;;4790479;30;20188;-92
2021/07/24 06:24:13;;;;;;;4.38;3.88;;;24.90;96.70;;;;;;4776647;30;20036;-93
2021/07/24 06:26:39;;;;;;;4.53;4.13;;;24.90;96.70;;;;;;4774989;30;20043;-92
2021/07/24 06:29:05;;;;;;;3.97;3.58;;;24.90;96.70;;;;;;4775500;30;20031;-94
2021/07/24 06:31:31;;;;;;;4.28;3.78;;;24.90;96.70;;;;;;4793432;30;20063;-93
2021/07/24 06:33:57;;;;;;;4.07;3.67;;;24.90;96.70;;;;;;4775143;30;20070;-92
2021/07/24 06:36:25;;;;;;;4.18;3.78;;;24.90;96.70;;;;;;4783889;29;20027;-94
2021/07/24 06:38:55;;;;;;;3.63;3.28;;;24.80;96.70;;;;;;4780512;29;20023;-90
2021/07/24 06:41:20;;;;;;;3.50;3.20;;;24.90;96.80;;;;;;4794494;29;20034;-88
2021/07/24 06:43:52;;;;;;;3.17;2.85;;;24.90;96.80;;;;;;4795740;29;20055;-94
2021/07/24 06:46:18;;;;;;;3.33;3.03;;;24.90;96.80;;;;;;4796987;29;20090;-95
2021/07/24 06:48:47;;;;;;;3.05;2.67;;;24.90;96.80;;;;;;4799807;30;20050;-96
2021/07/24 06:51:12;;;;;;;2.70;2.50;;;24.90;96.80;;;;;;4778129;29;20042;-93
2021/07/24 06:53:38;;;;;;;2.95;2.75;;;24.90;96.80;;;;;;4790067;30;20031;-94
2021/07/24 06:56:04;;;;;;;2.75;2.53;;;24.90;96.80;;;;;;4760665;30;20069;-93
2021/07/24 06:58:33;;;;;;;3.00;2.70;;;24.90;96.80;;;;;;4790646;30;20049;-92
2021/07/24 07:01:01;;;;;;;2.72;2.45;;;24.90;96.80;;;;;;4789520;30;20035;-93
2021/07/24 07:03:29;;;;;;;2.55;2.35;;;24.90;96.80;;;;;;4776888;29;20031;-94
2021/07/24 07:05:55;;;;;;;2.45;2.25;;;24.90;96.80;;;;;;4763070;30;20096;-93
2021/07/24 07:08:21;;;;;;;3.13;2.83;;;24.90;96.70;;;;;;4777810;30;20047;-93
2021/07/24 07:10:48;;;;;;;2.45;2.00;;;25.00;96.80;;;;;;4773408;30;20039;-93
2021/07/24 07:13:14;;;;;;;2.92;2.20;;;25.00;96.80;;;;;;4777165;30;20475;-93
2021/07/24 07:15:39;;;;;;;2.25;2.05;;;25.00;96.80;;;;;;4772573;30;20037;-90
2021/07/24 07:18:05;;;;;;;2.15;1.95;;;25.00;96.80;;;;;;4789862;30;20065;-93
2021/07/24 07:20:31;;;;;;;2.40;2.20;;;25.00;96.70;;;;;;4789145;30;20035;-90
2021/07/24 07:22:56;;;;;;;2.05;1.85;;;25.00;96.80;;;;;;4773509;30;20126;-93
2021/07/24 07:25:22;;;;;;;2.05;1.85;;;25.00;96.70;;;;;;4774831;30;20032;-93
2021/07/24 07:27:48;;;;;;;2.03;1.90;;;25.00;96.70;;;;;;4760564;30;20036;-91
2021/07/24 07:30:25;;;;;;;2.20;2.00;;;25.00;96.70;;;;;;4772428;30;20042;-95
2021/07/24 07:32:53;;;;;;;1.88;1.77;;;25.00;96.70;;;;;;4774132;30;20037;-94
2021/07/24 07:35:18;;;;;;;2.45;2.00;;;25.00;96.70;;;;;;4777256;30;20045;-93
2021/07/24 07:37:51;;;;;;;2.53;2.03;;;25.00;96.70;;;;;;4773248;30;20039;-94
2021/07/24 07:40:18;;;;;;;1.50;1.40;;;25.00;96.70;;;;;;4773668;30;20054;-94
2021/07/24 07:42:46;;;;;;;2.03;1.90;;;25.00;96.70;;;;;;4773022;30;20054;-94
2021/07/24 07:45:12;;;;;;;2.15;1.92;;;25.00;96.70;;;;;;4773262;30;20461;-94
2021/07/24 07:47:47;;;;;;;1.98;1.80;;;25.00;96.70;;;;;;4758900;30;20157;-93
2021/07/24 07:50:18;;;;;;;1.83;1.73;;;25.00;96.70;;;;;;4770138;30;20112;-93
2021/07/24 07:52:46;;;;;;;1.88;1.77;;;25.00;96.70;;;;;;4754929;30;20171;-92
2021/07/24 07:55:13;;;;;;;1.77;1.67;;;25.00;96.70;;;;;;4769333;30;20111;-93
2021/07/24 07:57:41;;;;;;;2.33;2.03;;;25.00;96.70;;;;;;4771852;29;20044;-93
2021/07/24 08:00:13;;;;;;;1.75;1.45;;;25.00;96.70;;;;;;4770356;30;20559;-92
2021/07/24 08:03:00;;;;;;;1.92;1.75;;;25.00;96.70;;;;;;4772716;30;20036;-95
2021/07/24 08:05:29;;;;;;;2.13;1.92;;;25.00;96.70;;;;;;4770172;30;20047;-93
2021/07/24 08:07:56;;;;;;;1.60;1.50;;;25.00;96.70;;;;;;4770545;30;20533;-92
2021/07/24 08:10:21;;;;;;;2.20;1.80;;;25.00;96.70;;;;;;4769668;30;20040;-91
2021/07/24 08:12:48;;;;;;;1.60;1.50;;;25.00;96.70;;;;;;4769340;30;20080;-93
2021/07/24 08:15:14;;;;;;;1.95;1.80;;;25.00;96.70;;;;;;4771623;30;20024;-93
2021/07/24 08:17:43;;;;;;;2.30;2.10;;;25.00;96.70;;;;;;4754422;30;20056;-93
2021/07/24 08:20:09;;;;;;;1.98;1.80;;;25.00;96.70;;;;;;4768957;30;20032;-92
2021/07/24 08:22:36;;;;;;;2.10;1.90;;;25.00;96.70;;;;;;4769591;30;20475;-91
2021/07/24 08:25:05;;;;;;;1.60;1.50;;;25.00;96.70;;;;;;4769349;30;20027;-94
2021/07/24 08:27:38;;;;;;;2.00;1.80;;;25.00;96.70;;;;;;4774110;29;20053;-92
2021/07/24 08:30:07;;;;;;;1.52;1.42;;;25.00;96.70;;;;;;4782864;29;20035;-93
2021/07/24 08:32:33;;;;;;;2.03;1.70;;;25.00;96.80;;;;;;4776191;30;20032;-91
2021/07/24 08:35:03;;;;;;;1.70;1.60;;;25.00;96.70;;;;;;4776501;30;20030;-93
2021/07/24 08:37:43;;;;;;;2.08;1.88;;;25.00;96.80;;;;;;4778893;30;20051;-95
2021/07/24 08:40:09;;;;;;;1.90;1.80;;;25.00;96.80;;;;;;4785970;30;20089;-91
2021/07/24 08:42:37;;;;;;;1.85;1.70;;;25.00;96.80;;;;;;4781868;30;20032;-94
2021/07/24 08:45:17;;;;;;;1.58;1.45;;;25.00;96.80;;;;;;4801917;29;20059;-95
2021/07/24 08:47:52;;;;;;;1.80;1.70;;;25.00;96.80;;;;;;4782155;30;20031;-94
2021/07/24 08:52:56;;;;;;;1.75;1.65;;;25.10;96.90;;;;;;4858746;24;20058;-95
2021/07/24 08:55:23;;;;;;;1.77;1.67;;;25.10;96.90;;;;;;4843317;29;20533;-92
2021/07/24 08:57:57;;;;;;;2.13;1.80;;;25.10;97.00;;;;;;4842734;29;20038;-92
2021/07/24 09:00:26;;;;;;;1.80;1.63;;;25.10;97.00;;;;;;4827704;29;20167;-92
2021/07/24 09:02:56;;;;;;;1.73;1.63;;;25.10;97.00;;;;;;4841205;29;20057;-91
2021/07/24 09:05:26;;;;;;;2.22;1.90;;;25.10;97.10;;;;;;4838213;29;20136;-90
2021/07/24 09:07:52;;;;;;;1.65;1.55;;;25.10;97.10;;;;;;4828727;29;20038;-91
2021/07/24 09:10:19;;;;;;;1.90;1.80;;;25.10;97.10;;;;;;4830174;29;20030;-90
2021/07/24 09:12:49;;;;;;;1.80;1.70;;;25.10;97.10;;;;;;4827261;29;20037;-89
2021/07/24 09:15:17;;;;;;;1.50;1.40;;;25.10;97.20;;;;;;4828813;29;20030;-95
2021/07/24 09:17:43;;;;;;;2.15;1.90;;;25.10;97.20;;;;;;4827999;29;20061;-91
2021/07/24 09:20:28;;;;;;;2.20;2.00;;;25.10;97.20;;;;;;4828077;29;20030;-96
2021/07/24 09:22:54;;;;;;;2.47;2.15;;;25.20;97.30;;;;;;4829481;29;20034;-95
2021/07/24 09:25:21;;;;;;;1.60;1.50;;;25.10;97.30;;;;;;4851236;29;20045;-90
2021/07/24 09:27:51;;;;;;;1.70;1.60;;;25.10;97.30;;;;;;4839198;29;20511;-92
2021/07/24 09:30:28;;;;;;;1.80;1.70;;;25.10;97.30;;;;;;4855178;29;20029;-91
2021/07/24 09:33:06;;;;;;;1.70;1.60;;;25.20;97.40;;;;;;4837740;29;20056;-93
2021/07/24 09:35:41;;;;;;;1.98;1.85;;;25.20;97.40;;;;;;4830872;29;20071;-93
2021/07/24 09:38:26;;;;;;;2.13;1.92;;;25.20;97.50;;;;;;4846422;29;20042;-91
2021/07/24 09:40:55;;;;;;;2.03;1.85;;;25.20;97.50;;;;;;4829473;29;20030;-93
2021/07/24 09:43:46;;;;;;;1.83;1.67;;;25.20;97.60;;;;;;4830784;29;20122;-92
2021/07/24 09:46:13;;;;;;;1.83;1.73;;;25.20;97.60;;;;;;4830742;29;20042;-93
2021/07/24 09:48:40;;;;;;;1.80;1.70;;;25.20;97.60;;;;;;4828847;29;20037;-92
2021/07/24 09:51:09;;;;;;;2.03;1.80;;;25.20;97.70;;;;;;4831015;29;20144;-93
2021/07/24 09:53:52;;;;;;;2.13;1.92;;;25.20;97.70;;;;;;4845788;29;20050;-94
2021/07/24 09:56:36;;;;;;;2.13;1.93;;;25.10;97.70;;;;;;4814017;29;20046;-93
2021/07/24 09:59:23;;;;;;;1.88;1.77;;;25.20;97.80;;;;;;4829811;29;20066;-92
2021/07/24 10:02:04;;;;;;;2.05;1.85;;;25.20;97.80;;;;;;4833246;29;20010;-93
2021/07/24 10:04:50;;;;;;;2.08;1.88;;;25.20;98.10;;;;;;4851317;29;20121;-93
2021/07/24 10:07:21;;;;;;;2.20;2.00;;;25.20;97.90;;;;;;4848469;29;20045;-93
2021/07/24 10:09:49;;;;;;;2.33;2.13;;;25.20;97.90;;;;;;4852474;29;20030;-93
2021/07/24 10:12:26;;;;;;;1.83;1.73;;;25.20;97.90;;;;;;4833150;29;20034;-93
2021/07/24 10:14:54;;;;;;;2.58;1.92;;;25.20;98.00;;;;;;4830066;29;20121;-93
2021/07/24 10:17:20;;;;;;;2.20;2.00;;;25.20;98.00;;;;;;4833169;29;20053;-93
2021/07/24 10:19:52;;;;;;;1.67;1.58;;;25.20;98.00;;;;;;4844390;29;20473;-92
2021/07/24 10:22:20;;;;;;;2.25;2.05;;;25.20;98.00;;;;;;4833240;29;20037;-94
2021/07/24 10:24:58;;;;;;;2.13;1.92;;;25.20;98.00;;;;;;4844798;29;20074;-93
2021/07/24 10:27:30;;;;;;;2.03;1.90;;;25.20;98.00;;;;;;4814663;29;20042;-93
2021/07/24 10:30:03;;;;;;;2.03;1.70;;;25.20;98.00;;;;;;4841710;29;20048;-92
2021/07/24 10:32:32;;;;;;;2.22;2.03;;;25.20;98.00;;;;;;4830545;29;20053;-92
2021/07/24 10:34:58;;;;;;;2.60;2.15;;;25.20;98.00;;;;;;4837410;29;20034;-94
2021/07/24 10:37:39;;;;;;;2.03;1.83;;;25.20;98.10;;;;;;4827744;29;20058;-90
2021/07/24 10:40:24;;;;;;;2.17;1.98;;;25.20;98.10;;;;;;4826698;29;20062;-89
2021/07/24 10:42:54;;;;;;;2.05;1.92;;;25.20;98.10;;;;;;4843637;29;20037;-93
2021/07/24 10:45:37;;;;;;;2.00;1.90;;;25.30;98.10;;;;;;4828409;29;20042;-91
2021/07/24 10:48:23;;;;;;;1.80;1.70;;;25.20;98.10;;;;;;4826660;29;20030;-92
2021/07/24 10:51:09;;;;;;;2.13;1.92;;;25.30;98.10;;;;;;4829742;29;20037;-93
2021/07/24 10:54:00;;;;;;;2.20;2.00;;;25.20;98.10;;;;;;4827475;29;20101;-93
2021/07/24 10:56:46;;;;;;;2.67;2.10;;;25.30;98.20;;;;;;4829283;29;20053;-93
2021/07/24 10:59:15;;;;;;;2.40;2.20;;;25.20;98.20;;;;;;4828043;29;20480;-92
2021/07/24 11:02:13;;;;;;;2.20;2.00;;;25.30;98.30;;;;;;4843979;29;20038;-90
2021/07/24 11:04:40;;;;;;;2.25;2.05;;;25.30;98.40;;;;;;4826678;29;20404;-92
2021/07/24 11:07:12;;;;;;;2.30;2.10;;;25.30;98.40;;;;;;4827262;29;20038;-91
2021/07/24 11:09:47;;;;;;;2.40;2.20;;;25.30;98.50;;;;;;4828776;29;20029;-91
2021/07/24 11:12:14;;;;;;;2.25;2.05;;;25.30;98.50;;;;;;4843359;29;20038;-92
2021/07/24 11:14:45;;;;;;;2.20;2.00;;;25.30;98.50;;;;;;4827443;29;20041;-92
2021/07/24 11:17:14;;;;;;;2.28;2.13;;;25.30;98.50;;;;;;4827411;29;20108;-93
2021/07/24 11:19:52;;;;;;;2.50;2.30;;;25.30;98.60;;;;;;4827706;29;20095;-92
2021/07/24 11:22:18;;;;;;;2.30;2.10;;;25.30;98.60;;;;;;4828215;29;20025;-91
2021/07/24 11:24:53;;;;;;;2.30;2.10;;;25.30;98.60;;;;;;4834270;29;20030;-91
2021/07/24 11:27:30;;;;;;;;;;;25.30;98.60;;;;;;4827791;29;20178;-91
2021/07/24 11:30:02;;;;;;;2.60;2.40;;;25.30;98.60;;;;;;4843532;29;19912;-92
2021/07/24 11:32:39;;;;;;;2.17;1.98;;;25.30;98.70;;;;;;4828378;29;20548;-92
2021/07/24 11:35:15;;;;;;;2.47;2.28;;;25.30;98.70;;;;;;4827170;29;20045;-92
2021/07/24 11:37:54;;;;;;;3.03;2.70;;;25.30;98.70;;;;;;4811862;29;20077;-92
2021/07/24 11:40:28;;;;;;;3.03;2.72;;;25.30;98.70;;;;;;4826623;29;20038;-91
2021/07/24 11:43:01;;;;;;;;;;;25.20;98.70;;;;;;4827401;29;20034;-91
2021/07/24 11:45:39;;;;;;;2.60;2.40;;;25.30;98.70;;;;;;4826800;29;19909;-92
2021/07/24 11:48:18;;;;;;;2.33;2.13;;;25.30;98.80;;;;;;4826675;29;20034;-92
2021/07/24 11:51:08;;;;;;;2.20;2.00;;;25.20;98.80;;;;;;4826918;29;20550;-92
2021/07/24 11:53:37;;;;;;;2.80;2.50;;;25.30;98.80;;;;;;4828895;29;20057;-90
2021/07/24 11:56:11;;;;;;;2.05;1.85;;;25.30;98.70;;;;;;4837772;29;20030;-93
2021/07/24 11:58:44;;;;;;;2.92;2.47;;;25.30;98.70;;;;;;4831877;29;20033;-92
2021/07/24 12:01:22;;;;;;;2.42;2.20;;;25.30;98.60;;;;;;4812827;29;20056;-93
2021/07/24 12:04:05;;;;;;;2.58;2.38;;;25.30;98.60;;;;;;4827320;29;20030;-92
2021/07/24 12:06:46;;;;;;;2.40;2.20;;;25.30;98.60;;;;;;4827186;29;20129;-92
2021/07/24 12:09:17;;;;;;;2.40;2.20;;;25.30;98.60;;;;;;4842913;29;20465;-92
2021/07/24 12:11:53;;;;;;;2.38;2.17;;;25.30;98.90;;;;;;4826855;29;20382;-93
2021/07/24 12:14:34;;;;;;;;;;;;;;;;;;;;;
2021/07/24 12:17:10;;;;;;;2.33;2.13;;;25.30;98.70;;;;;;4843162;29;20042;-93
2021/07/24 12:19:41;;;;;;;2.50;2.30;;;25.30;98.80;;;;;;4826588;29;20033;-93
2021/07/24 12:22:21;;;;;;;2.80;2.50;;;25.30;98.80;;;;;;4826311;29;20038;-93
2021/07/24 12:24:52;;;;;;;2.25;2.05;;;25.30;98.80;;;;;;4828241;29;20030;-92
2021/07/24 12:27:26;;;;;;;2.67;2.47;;;25.30;98.90;;;;;;4860489;29;20054;-93
2021/07/24 12:29:59;;;;;;;3.03;2.47;;;25.30;98.90;;;;;;4838900;29;20034;-91
2021/07/24 12:32:39;;;;;;;2.83;2.60;;;25.30;98.90;;;;;;4846222;29;20042;-91
2021/07/24 12:35:27;;;;;;;2.95;2.53;;;25.30;98.90;;;;;;4826827;29;20034;-93
2021/07/24 12:38:10;;;;;;;2.58;2.38;;;25.30;98.90;;;;;;4826759;29;20038;-91
2021/07/24 12:40:46;;;;;;;2.95;2.75;;;25.30;98.90;;;;;;4827653;29;20469;-92
2021/07/24 12:43:13;;;;;;;2.72;2.53;;;25.30;98.90;;;;;;4815749;29;20030;-91
2021/07/24 12:45:44;;;;;;;2.60;2.40;;;25.30;98.90;;;;;;4830242;29;20409;-92
2021/07/24 12:48:30;;;;;;;3.55;2.83;;;25.30;98.90;;;;;;4815051;29;20405;-92
2021/07/24 12:51:47;;;;;;;2.70;2.50;;;25.30;99.00;;;;;;4815775;29;20038;-92
2021/07/24 12:54:17;;;;;;;2.92;2.63;;;25.30;99.00;;;;;;4829427;29;20466;-93
2021/07/24 12:56:48;;;;;;;2.75;2.53;;;25.30;99.00;;;;;;4828808;29;20465;-92
2021/07/24 12:59:17;;;;;;;2.35;2.15;;;25.30;99.00;;;;;;4845871;29;20044;-91
2021/07/24 13:01:59;;;;;;;3.00;2.78;;;25.30;99.00;;;;;;4814974;29;20034;-92
2021/07/24 13:04:32;;;;;;;2.83;2.63;;;25.30;99.00;;;;;;4815264;29;20085;-90
2021/07/24 13:07:06;;;;;;;2.75;2.55;;;25.30;99.00;;;;;;4814352;29;20129;-93